createdAt,value
2018-12-19T00:05:33.093Z,11.78
2018-12-19T00:11:28.073Z,9.77
2018-12-19T00:17:23.076Z,10.57
2018-12-19T00:23:18.088Z,7.76
2018-12-19T00:29:13.138Z,8.41
2018-12-19T00:35:08.088Z,6.44
2018-12-19T00:41:03.082Z,6.3
2018-12-19T00:46:58.131Z,5.92
2018-12-19T00:52:53.091Z,5.99
2018-12-19T00:58:48.119Z,6.69
2018-12-19T01:04:48.031Z,5.2
2018-12-19T01:10:38.105Z,6.57
2018-12-19T01:16:33.134Z,6.83
2018-12-19T01:22:28.113Z,6.31
2018-12-19T01:28:23.100Z,6.28
2018-12-19T01:34:18.111Z,6.86
2018-12-19T01:40:13.101Z,6.77
2018-12-19T01:46:08.125Z,7.28
2018-12-19T01:52:03.153Z,7.25
2018-12-19T01:57:58.104Z,7.12
2018-12-19T02:03:53.159Z,6.07
2018-12-19T02:09:48.154Z,6.6
2018-12-19T02:15:43.109Z,7.51
2018-12-19T02:21:38.148Z,5.77
2018-12-19T02:27:33.158Z,5.55
2018-12-19T02:33:28.146Z,43.4
2018-12-19T02:39:23.124Z,5.6
2018-12-19T02:45:18.146Z,6.32
2018-12-19T02:51:13.147Z,6.09
2018-12-19T02:57:08.148Z,6.03
2018-12-19T03:03:03.177Z,6.42
2018-12-19T03:08:58.150Z,6.78
2018-12-19T03:14:53.159Z,5.96
2018-12-19T03:20:48.175Z,5.29
2018-12-19T03:26:43.193Z,5.85
2018-12-19T03:32:38.179Z,6.11
2018-12-19T03:38:33.187Z,5.03
2018-12-19T03:44:28.159Z,5.39
2018-12-19T03:50:23.172Z,5.33
2018-12-19T03:56:18.197Z,6.14
2018-12-19T04:02:13.161Z,5.9
2018-12-19T04:08:08.180Z,5.59
2018-12-19T04:14:03.206Z,4.94
2018-12-19T04:19:58.178Z,4.79
2018-12-19T04:25:53.173Z,5.79
2018-12-19T04:31:48.194Z,5.26
2018-12-19T04:37:43.209Z,6.21
2018-12-19T04:43:38.200Z,5.29
2018-12-19T04:49:33.177Z,4.71
2018-12-19T04:55:28.198Z,4.64
2018-12-19T05:01:23.202Z,4.37
2018-12-19T05:07:18.195Z,4.62
2018-12-19T05:13:13.172Z,4.68
2018-12-19T05:19:08.193Z,5.48
2018-12-19T05:25:03.193Z,5.45
2018-12-19T05:30:58.233Z,5.37
2018-12-19T05:36:53.200Z,4.46
2018-12-19T05:42:48.247Z,5.74
2018-12-19T05:48:43.229Z,5.09
2018-12-19T05:54:38.213Z,5.73
2018-12-19T06:00:33.224Z,5.98
2018-12-19T06:06:28.228Z,8.49
2018-12-19T06:12:23.251Z,8.67
2018-12-19T06:18:18.216Z,8.12
2018-12-19T06:24:13.232Z,7.02
2018-12-19T06:30:08.227Z,7.08
2018-12-19T06:36:03.246Z,7.86
2018-12-19T06:41:58.230Z,6.52
2018-12-19T06:47:53.226Z,6.55
2018-12-19T06:53:48.254Z,6.83
2018-12-19T06:59:43.233Z,5.98
2018-12-19T07:05:38.237Z,6.94
2018-12-19T07:11:33.228Z,6.69
2018-12-19T07:17:28.222Z,5.98
2018-12-19T07:23:23.237Z,6.3
2018-12-19T07:29:18.308Z,6.43
2018-12-19T07:35:13.288Z,8.37
2018-12-19T07:41:08.293Z,7.14
2018-12-19T07:47:03.282Z,6.96
2018-12-19T07:52:58.297Z,6.76
2018-12-19T07:58:53.258Z,8.91
2018-12-19T08:04:48.265Z,10.81
2018-12-19T08:10:43.262Z,10.54
2018-12-19T08:16:38.258Z,11.69
2018-12-19T08:22:33.263Z,13.32
2018-12-19T08:28:28.297Z,15.98
2018-12-19T08:34:23.338Z,17.51
2018-12-19T08:40:18.270Z,20.32
2018-12-19T08:46:14.590Z,19.84
2018-12-19T08:52:08.357Z,20.31
2018-12-19T08:58:03.285Z,23.04
2018-12-19T09:03:58.292Z,39.32
2018-12-19T09:09:53.309Z,25.34
2018-12-19T09:15:48.312Z,24.64
2018-12-19T09:21:43.382Z,24.57
2018-12-19T09:27:38.321Z,24.34
2018-12-19T09:33:33.316Z,24.93
2018-12-19T09:39:28.322Z,24.24
2018-12-19T09:45:23.313Z,26.1
2018-12-19T09:51:18.295Z,24.7
2018-12-19T09:57:13.393Z,28.57
2018-12-19T10:03:08.329Z,33.83
2018-12-19T10:09:03.348Z,34.28
2018-12-19T10:14:58.315Z,34.78
2018-12-19T10:20:53.328Z,32.54
2018-12-19T10:26:48.342Z,34.16
2018-12-19T10:32:43.339Z,34.03
2018-12-19T10:38:38.336Z,34.69
2018-12-19T10:44:33.390Z,31.61
2018-12-19T10:50:28.380Z,33.45
2018-12-19T10:56:23.380Z,31.43
2018-12-19T11:02:18.337Z,33.35
2018-12-19T11:08:13.347Z,31.94
2018-12-19T11:14:08.374Z,34.48
2018-12-19T11:20:03.343Z,33.22
2018-12-19T11:25:58.427Z,35.75
2018-12-19T11:31:53.367Z,35.74
2018-12-19T11:37:48.358Z,33.31
2018-12-19T11:43:43.354Z,32.12
2018-12-19T11:49:38.370Z,34.17
2018-12-19T11:55:33.364Z,39.89
2018-12-19T12:01:28.365Z,34.73
2018-12-19T12:07:23.378Z,36.9
2018-12-19T12:13:18.367Z,32.78
2018-12-19T12:19:13.385Z,32.37
2018-12-19T12:25:08.418Z,41.37
2018-12-19T12:31:03.390Z,32.11
2018-12-19T12:36:58.398Z,34.46
2018-12-19T12:42:53.389Z,32.29
2018-12-19T12:48:48.390Z,31.96
2018-12-19T12:54:43.394Z,35.18
2018-12-19T13:00:38.404Z,38.32
2018-12-19T13:06:33.428Z,36.43
2018-12-19T13:12:28.414Z,39.4
2018-12-19T13:18:23.412Z,36.28
2018-12-19T13:24:18.412Z,45.08
2018-12-19T13:30:13.445Z,41.33
2018-12-19T13:36:08.411Z,41.33
2018-12-19T13:42:05.673Z,43.07
2018-12-19T13:47:58.448Z,37.34
2018-12-19T13:53:53.455Z,33.71
2018-12-19T13:59:48.419Z,38.57
2018-12-19T14:05:43.427Z,27.77
2018-12-19T14:11:38.466Z,27.8
2018-12-19T14:17:33.451Z,24.64
2018-12-19T14:23:28.443Z,29.18
2018-12-19T14:29:23.431Z,27.11
2018-12-19T14:35:18.468Z,28.84
2018-12-19T14:41:13.436Z,29.06
2018-12-19T14:47:08.508Z,30.95
2018-12-19T14:53:03.460Z,31.85
2018-12-19T14:58:58.452Z,32.09
2018-12-19T15:04:53.476Z,30.91
2018-12-19T15:10:48.469Z,31.36
2018-12-19T15:16:43.459Z,30.7
2018-12-19T15:22:38.487Z,31.04
2018-12-19T15:28:33.478Z,32.39
2018-12-19T15:34:28.498Z,34.18
2018-12-19T15:40:23.478Z,33.62
2018-12-19T15:46:18.510Z,41
2018-12-19T15:52:13.502Z,43.21
2018-12-19T15:58:08.526Z,37.75
2018-12-19T16:04:03.496Z,36.88
2018-12-19T16:09:58.493Z,32.52
2018-12-19T16:15:53.532Z,28.39
2018-12-19T16:21:48.490Z,26.52
2018-12-19T16:27:43.520Z,26.86
2018-12-19T16:33:38.507Z,25.49
2018-12-19T16:39:33.517Z,24.85
2018-12-19T16:45:28.533Z,29.56
2018-12-19T16:51:23.501Z,22.54
2018-12-19T16:57:18.502Z,37.3
2018-12-19T17:03:13.530Z,35.53
2018-12-19T17:09:08.520Z,40.7
2018-12-19T17:15:03.525Z,34.1
2018-12-19T17:20:58.545Z,38.57
2018-12-19T17:26:53.520Z,53.2
2018-12-19T17:32:49.218Z,26.59
2018-12-19T17:38:43.536Z,38.14
2018-12-19T17:44:38.572Z,36.83
2018-12-19T17:50:33.585Z,30.43
2018-12-19T17:56:28.535Z,35.29
2018-12-19T18:02:23.594Z,83
2018-12-19T18:08:18.536Z,31.47
2018-12-19T18:14:13.538Z,26.99
2018-12-19T18:20:08.603Z,28.94
2018-12-19T18:26:03.550Z,24.55
2018-12-19T18:31:58.549Z,22.02
2018-12-19T18:37:53.565Z,22.72
2018-12-19T18:43:48.583Z,18.38
2018-12-19T18:49:43.575Z,29.64
2018-12-19T18:55:38.568Z,16.47
2018-12-19T19:01:33.625Z,22.86
2018-12-19T19:07:28.592Z,19.79
2018-12-19T19:13:23.646Z,19.85
2018-12-19T19:19:18.606Z,21.56
2018-12-19T19:25:13.591Z,32.16
2018-12-19T19:31:08.612Z,32.49
2018-12-19T19:37:03.591Z,35.38
2018-12-19T19:42:58.603Z,36.05
2018-12-19T19:48:53.600Z,31.58
2018-12-19T19:54:48.611Z,31.65
2018-12-19T20:00:43.601Z,52.54
2018-12-19T20:06:38.660Z,40.36
2018-12-19T20:12:33.607Z,42.11
2018-12-19T20:18:28.636Z,37.74
2018-12-19T20:24:23.607Z,36
2018-12-19T20:30:18.600Z,34.81
2018-12-19T20:36:13.627Z,38.36
2018-12-19T20:42:08.656Z,75.08
2018-12-19T20:48:03.638Z,37.85
2018-12-19T20:53:58.631Z,50.62
2018-12-19T20:59:53.631Z,34.79
2018-12-19T21:05:48.665Z,53.95
2018-12-19T21:11:43.682Z,57.3
2018-12-19T21:17:38.623Z,38.3
2018-12-19T21:23:33.640Z,32.53
2018-12-19T21:29:28.633Z,28.96
2018-12-19T21:35:23.666Z,27.2
2018-12-19T21:41:18.694Z,29.43
2018-12-19T21:47:13.664Z,27.64
2018-12-19T21:53:08.676Z,27.07
2018-12-19T21:59:03.689Z,34.17
2018-12-19T22:04:58.703Z,23.88
2018-12-19T22:10:53.658Z,23.15
2018-12-19T22:16:48.707Z,18.54
2018-12-19T22:22:43.754Z,22.42
2018-12-19T22:28:38.688Z,23.02
2018-12-19T22:34:33.688Z,21.96
2018-12-19T22:40:28.743Z,26.26
2018-12-19T22:46:23.746Z,26.28
2018-12-19T22:52:18.740Z,17.97
2018-12-19T22:58:13.686Z,23.56
2018-12-19T23:04:08.776Z,35.01
2018-12-19T23:10:03.678Z,33.62
2018-12-19T23:15:58.799Z,26.26
2018-12-19T23:21:53.853Z,27.6
2018-12-19T23:27:48.734Z,25.99
2018-12-19T23:33:43.712Z,34.47
2018-12-19T23:39:38.794Z,32.89
2018-12-19T23:45:33.732Z,29.85
2018-12-19T23:51:28.781Z,27.52
2018-12-19T23:57:23.746Z,34.92
